sensor_id;sensor_type;location;lat;lon;timestamp;temperature;humidity
29575;DHT22;16507;51.046;6.406;2023-05-07T00:02:22;13.70;99.90
29575;DHT22;16507;51.046;6.406;2023-05-07T00:04:48;13.70;99.90
29575;DHT22;16507;51.046;6.406;2023-05-07T00:07:14;13.70;99.90
29575;DHT22;16507;51.046;6.406;2023-05-07T00:09:40;13.70;99.90
29575;DHT22;16507;51.046;6.406;2023-05-07T00:12:05;13.70;99.90
29575;DHT22;16507;51.046;6.406;2023-05-07T00:14:31;13.70;99.90
29575;DHT22;16507;51.046;6.406;2023-05-07T00:16:57;13.80;99.90
29575;DHT22;16507;51.046;6.406;2023-05-07T00:19:23;13.90;99.90
29575;DHT22;16507;51.046;6.406;2023-05-07T00:21:48;13.80;99.90
29575;DHT22;16507;51.046;6.406;2023-05-07T00:24:14;13.90;99.90
29575;DHT22;16507;51.046;6.406;2023-05-07T00:26:39;13.80;99.90
29575;DHT22;16507;51.046;6.406;2023-05-07T00:29:05;13.80;99.90
29575;DHT22;16507;51.046;6.406;2023-05-07T00:31:31;13.80;99.90
29575;DHT22;16507;51.046;6.406;2023-05-07T00:33:56;13.90;99.90
29575;DHT22;16507;51.046;6.406;2023-05-07T00:36:22;13.80;99.90
29575;DHT22;16507;51.046;6.406;2023-05-07T00:38:47;13.80;99.90
29575;DHT22;16507;51.046;6.406;2023-05-07T00:41:13;13.90;99.90
29575;DHT22;16507;51.046;6.406;2023-05-07T00:43:39;13.80;99.90
29575;DHT22;16507;51.046;6.406;2023-05-07T00:46:04;13.90;99.90
29575;DHT22;16507;51.046;6.406;2023-05-07T00:48:30;13.80;99.90
29575;DHT22;16507;51.046;6.406;2023-05-07T00:50:57;13.80;99.90
29575;DHT22;16507;51.046;6.406;2023-05-07T00:53:22;13.80;99.90
29575;DHT22;16507;51.046;6.406;2023-05-07T00:55:48;13.90;99.90
29575;DHT22;16507;51.046;6.406;2023-05-07T00:58:14;13.90;99.90
29575;DHT22;16507;51.046;6.406;2023-05-07T01:00:40;13.90;99.90
29575;DHT22;16507;51.046;6.406;2023-05-07T01:03:06;13.90;99.90
29575;DHT22;16507;51.046;6.406;2023-05-07T01:05:32;13.80;99.90
29575;DHT22;16507;51.046;6.406;2023-05-07T01:07:58;13.80;99.90
29575;DHT22;16507;51.046;6.406;2023-05-07T01:10:24;13.80;99.90
29575;DHT22;16507;51.046;6.406;2023-05-07T01:12:50;13.80;99.90
29575;DHT22;16507;51.046;6.406;2023-05-07T01:15:16;13.70;99.90
29575;DHT22;16507;51.046;6.406;2023-05-07T01:17:43;13.80;99.90
29575;DHT22;16507;51.046;6.406;2023-05-07T01:20:09;13.70;99.90
29575;DHT22;16507;51.046;6.406;2023-05-07T01:22:37;13.70;99.90
29575;DHT22;16507;51.046;6.406;2023-05-07T01:25:04;13.70;99.90
29575;DHT22;16507;51.046;6.406;2023-05-07T01:27:30;13.70;99.90
29575;DHT22;16507;51.046;6.406;2023-05-07T01:29:56;13.60;99.90
29575;DHT22;16507;51.046;6.406;2023-05-07T01:35:11;13.60;99.90
29575;DHT22;16507;51.046;6.406;2023-05-07T01:37:39;13.60;99.90
29575;DHT22;16507;51.046;6.406;2023-05-07T01:40:06;13.50;99.90
29575;DHT22;16507;51.046;6.406;2023-05-07T01:42:32;13.60;99.90
29575;DHT22;16507;51.046;6.406;2023-05-07T01:44:58;13.60;99.90
29575;DHT22;16507;51.046;6.406;2023-05-07T01:47:25;13.60;99.90
29575;DHT22;16507;51.046;6.406;2023-05-07T01:49:54;13.50;99.90
29575;DHT22;16507;51.046;6.406;2023-05-07T01:52:20;13.50;99.90
29575;DHT22;16507;51.046;6.406;2023-05-07T01:54:46;13.50;99.90
29575;DHT22;16507;51.046;6.406;2023-05-07T01:57:11;13.50;99.90
29575;DHT22;16507;51.046;6.406;2023-05-07T01:59:37;13.50;99.90
29575;DHT22;16507;51.046;6.406;2023-05-07T02:02:03;13.40;99.90
29575;DHT22;16507;51.046;6.406;2023-05-07T02:04:28;13.30;99.90
29575;DHT22;16507;51.046;6.406;2023-05-07T02:06:54;13.30;99.90
29575;DHT22;16507;51.046;6.406;2023-05-07T02:09:19;13.40;99.90
29575;DHT22;16507;51.046;6.406;2023-05-07T02:11:45;13.30;99.90
29575;DHT22;16507;51.046;6.406;2023-05-07T02:14:11;13.20;99.90
29575;DHT22;16507;51.046;6.406;2023-05-07T02:16:37;13.20;99.90
29575;DHT22;16507;51.046;6.406;2023-05-07T02:19:02;13.20;99.90
29575;DHT22;16507;51.046;6.406;2023-05-07T02:21:28;13.10;99.90
29575;DHT22;16507;51.046;6.406;2023-05-07T02:23:53;13.10;99.90
29575;DHT22;16507;51.046;6.406;2023-05-07T02:26:19;13.00;99.90
29575;DHT22;16507;51.046;6.406;2023-05-07T02:28:45;13.00;99.90
29575;DHT22;16507;51.046;6.406;2023-05-07T02:31:10;12.90;99.90
29575;DHT22;16507;51.046;6.406;2023-05-07T02:33:36;12.80;99.90
29575;DHT22;16507;51.046;6.406;2023-05-07T02:36:11;12.80;99.90
29575;DHT22;16507;51.046;6.406;2023-05-07T02:38:37;12.70;99.90
29575;DHT22;16507;51.046;6.406;2023-05-07T02:41:03;12.60;99.90
29575;DHT22;16507;51.046;6.406;2023-05-07T02:43:29;12.60;99.90
29575;DHT22;16507;51.046;6.406;2023-05-07T02:46:05;12.60;99.90
29575;DHT22;16507;51.046;6.406;2023-05-07T02:48:31;12.70;99.90
29575;DHT22;16507;51.046;6.406;2023-05-07T02:50:58;12.70;99.90
29575;DHT22;16507;51.046;6.406;2023-05-07T02:53:24;12.70;99.90
29575;DHT22;16507;51.046;6.406;2023-05-07T02:55:52;12.80;99.90
29575;DHT22;16507;51.046;6.406;2023-05-07T02:58:18;12.80;99.90
29575;DHT22;16507;51.046;6.406;2023-05-07T03:00:43;12.80;99.90
29575;DHT22;16507;51.046;6.406;2023-05-07T03:03:09;12.80;99.90
29575;DHT22;16507;51.046;6.406;2023-05-07T03:05:36;12.90;99.90
29575;DHT22;16507;51.046;6.406;2023-05-07T03:08:01;12.80;99.90
29575;DHT22;16507;51.046;6.406;2023-05-07T03:10:28;12.90;99.90
29575;DHT22;16507;51.046;6.406;2023-05-07T03:12:53;12.90;99.90
29575;DHT22;16507;51.046;6.406;2023-05-07T03:15:19;12.90;99.90
29575;DHT22;16507;51.046;6.406;2023-05-07T03:17:45;12.80;99.90
29575;DHT22;16507;51.046;6.406;2023-05-07T03:20:10;12.90;99.90
29575;DHT22;16507;51.046;6.406;2023-05-07T03:22:36;12.90;99.90
29575;DHT22;16507;51.046;6.406;2023-05-07T03:25:02;12.90;99.90
29575;DHT22;16507;51.046;6.406;2023-05-07T03:27:28;12.90;99.90
29575;DHT22;16507;51.046;6.406;2023-05-07T03:29:53;12.70;99.90
29575;DHT22;16507;51.046;6.406;2023-05-07T03:32:19;12.60;99.90
29575;DHT22;16507;51.046;6.406;2023-05-07T03:34:44;12.60;99.90
29575;DHT22;16507;51.046;6.406;2023-05-07T03:37:10;12.50;99.90
29575;DHT22;16507;51.046;6.406;2023-05-07T03:39:35;12.50;99.90
29575;DHT22;16507;51.046;6.406;2023-05-07T03:42:01;12.50;99.90
29575;DHT22;16507;51.046;6.406;2023-05-07T03:44:27;12.50;99.90
29575;DHT22;16507;51.046;6.406;2023-05-07T03:46:53;12.60;99.90
29575;DHT22;16507;51.046;6.406;2023-05-07T03:49:18;12.70;99.90
29575;DHT22;16507;51.046;6.406;2023-05-07T03:51:44;12.70;99.90
29575;DHT22;16507;51.046;6.406;2023-05-07T03:54:10;12.70;99.90
29575;DHT22;16507;51.046;6.406;2023-05-07T03:56:36;12.60;99.90
29575;DHT22;16507;51.046;6.406;2023-05-07T03:59:04;12.60;99.90
29575;DHT22;16507;51.046;6.406;2023-05-07T04:01:30;12.50;99.90
29575;DHT22;16507;51.046;6.406;2023-05-07T04:03:55;12.50;99.90
29575;DHT22;16507;51.046;6.406;2023-05-07T04:06:21;12.50;99.90
29575;DHT22;16507;51.046;6.406;2023-05-07T04:08:47;12.50;99.90
29575;DHT22;16507;51.046;6.406;2023-05-07T04:11:13;12.60;99.90
29575;DHT22;16507;51.046;6.406;2023-05-07T04:13:38;12.50;99.90
29575;DHT22;16507;51.046;6.406;2023-05-07T04:16:05;12.60;99.90
29575;DHT22;16507;51.046;6.406;2023-05-07T04:18:30;12.60;99.90
29575;DHT22;16507;51.046;6.406;2023-05-07T04:20:56;12.70;99.90
29575;DHT22;16507;51.046;6.406;2023-05-07T04:23:21;12.70;99.90
29575;DHT22;16507;51.046;6.406;2023-05-07T04:25:47;12.70;99.90
29575;DHT22;16507;51.046;6.406;2023-05-07T04:28:13;12.80;99.90
29575;DHT22;16507;51.046;6.406;2023-05-07T04:30:39;12.90;99.90
29575;DHT22;16507;51.046;6.406;2023-05-07T04:33:05;13.00;99.90
29575;DHT22;16507;51.046;6.406;2023-05-07T04:35:32;13.10;99.90
29575;DHT22;16507;51.046;6.406;2023-05-07T04:37:58;13.10;99.90
29575;DHT22;16507;51.046;6.406;2023-05-07T04:40:23;13.30;99.90
29575;DHT22;16507;51.046;6.406;2023-05-07T04:42:49;13.30;99.90
29575;DHT22;16507;51.046;6.406;2023-05-07T04:45:15;13.30;99.90
29575;DHT22;16507;51.046;6.406;2023-05-07T04:47:40;13.40;99.90
29575;DHT22;16507;51.046;6.406;2023-05-07T04:50:07;13.40;99.90
29575;DHT22;16507;51.046;6.406;2023-05-07T04:52:33;13.50;99.90
29575;DHT22;16507;51.046;6.406;2023-05-07T04:54:59;13.60;99.90
29575;DHT22;16507;51.046;6.406;2023-05-07T04:57:26;13.70;99.90
29575;DHT22;16507;51.046;6.406;2023-05-07T04:59:52;13.70;99.90
29575;DHT22;16507;51.046;6.406;2023-05-07T05:02:17;13.70;99.90
29575;DHT22;16507;51.046;6.406;2023-05-07T05:04:43;13.80;99.90
29575;DHT22;16507;51.046;6.406;2023-05-07T05:07:08;13.80;99.90
29575;DHT22;16507;51.046;6.406;2023-05-07T05:09:34;13.80;99.90
29575;DHT22;16507;51.046;6.406;2023-05-07T05:12:00;13.90;99.90
29575;DHT22;16507;51.046;6.406;2023-05-07T05:14:25;13.90;99.90
29575;DHT22;16507;51.046;6.406;2023-05-07T05:16:51;14.00;99.90
29575;DHT22;16507;51.046;6.406;2023-05-07T05:19:17;14.00;99.90
29575;DHT22;16507;51.046;6.406;2023-05-07T05:21:42;14.10;99.90
29575;DHT22;16507;51.046;6.406;2023-05-07T05:24:08;14.00;99.90
29575;DHT22;16507;51.046;6.406;2023-05-07T05:26:34;14.10;99.90
29575;DHT22;16507;51.046;6.406;2023-05-07T05:28:59;14.20;99.90
29575;DHT22;16507;51.046;6.406;2023-05-07T05:31:25;14.20;99.90
29575;DHT22;16507;51.046;6.406;2023-05-07T05:33:51;14.20;99.90
29575;DHT22;16507;51.046;6.406;2023-05-07T05:36:17;14.30;99.90
29575;DHT22;16507;51.046;6.406;2023-05-07T05:38:42;14.20;99.90
29575;DHT22;16507;51.046;6.406;2023-05-07T05:41:09;14.20;99.90
29575;DHT22;16507;51.046;6.406;2023-05-07T05:43:35;14.30;99.90
29575;DHT22;16507;51.046;6.406;2023-05-07T05:46:00;14.40;99.90
29575;DHT22;16507;51.046;6.406;2023-05-07T05:48:26;14.50;99.90
29575;DHT22;16507;51.046;6.406;2023-05-07T05:50:51;14.50;99.90
29575;DHT22;16507;51.046;6.406;2023-05-07T05:53:17;14.60;99.90
29575;DHT22;16507;51.046;6.406;2023-05-07T05:55:43;14.60;99.90
29575;DHT22;16507;51.046;6.406;2023-05-07T05:58:09;14.70;99.90
29575;DHT22;16507;51.046;6.406;2023-05-07T06:00:35;14.70;99.90
29575;DHT22;16507;51.046;6.406;2023-05-07T06:03:01;14.80;99.90
29575;DHT22;16507;51.046;6.406;2023-05-07T06:05:26;14.80;99.90
29575;DHT22;16507;51.046;6.406;2023-05-07T06:07:52;15.00;99.90
29575;DHT22;16507;51.046;6.406;2023-05-07T06:10:17;15.10;99.90
29575;DHT22;16507;51.046;6.406;2023-05-07T06:12:43;15.30;99.90
29575;DHT22;16507;51.046;6.406;2023-05-07T06:15:10;15.40;99.90
29575;DHT22;16507;51.046;6.406;2023-05-07T06:17:35;15.60;99.90
29575;DHT22;16507;51.046;6.406;2023-05-07T06:20:01;15.50;99.90
29575;DHT22;16507;51.046;6.406;2023-05-07T06:22:26;15.60;99.90
29575;DHT22;16507;51.046;6.406;2023-05-07T06:24:52;15.60;99.90
29575;DHT22;16507;51.046;6.406;2023-05-07T06:27:18;15.70;99.90
29575;DHT22;16507;51.046;6.406;2023-05-07T06:29:43;15.60;99.90
29575;DHT22;16507;51.046;6.406;2023-05-07T06:32:13;15.80;99.90
29575;DHT22;16507;51.046;6.406;2023-05-07T06:34:40;16.00;99.90
29575;DHT22;16507;51.046;6.406;2023-05-07T06:37:06;16.20;99.90
29575;DHT22;16507;51.046;6.406;2023-05-07T06:39:32;16.50;99.90
29575;DHT22;16507;51.046;6.406;2023-05-07T06:42:00;16.60;99.90
29575;DHT22;16507;51.046;6.406;2023-05-07T06:44:25;16.60;99.90
29575;DHT22;16507;51.046;6.406;2023-05-07T06:46:51;16.70;99.90
29575;DHT22;16507;51.046;6.406;2023-05-07T06:49:17;16.80;99.90
29575;DHT22;16507;51.046;6.406;2023-05-07T06:51:42;16.80;99.90
29575;DHT22;16507;51.046;6.406;2023-05-07T06:54:08;17.00;99.90
29575;DHT22;16507;51.046;6.406;2023-05-07T06:56:33;16.90;99.90
29575;DHT22;16507;51.046;6.406;2023-05-07T06:59:00;17.00;99.90
29575;DHT22;16507;51.046;6.406;2023-05-07T07:01:26;17.20;99.90
29575;DHT22;16507;51.046;6.406;2023-05-07T07:03:52;17.40;99.90
29575;DHT22;16507;51.046;6.406;2023-05-07T07:06:17;17.60;99.90
29575;DHT22;16507;51.046;6.406;2023-05-07T07:08:43;17.60;99.90
29575;DHT22;16507;51.046;6.406;2023-05-07T07:11:09;17.90;99.90
29575;DHT22;16507;51.046;6.406;2023-05-07T07:13:35;18.00;99.90
29575;DHT22;16507;51.046;6.406;2023-05-07T07:16:00;18.30;99.90
29575;DHT22;16507;51.046;6.406;2023-05-07T07:18:26;18.00;99.90
29575;DHT22;16507;51.046;6.406;2023-05-07T07:20:52;17.90;99.90
29575;DHT22;16507;51.046;6.406;2023-05-07T07:23:17;18.00;99.90
29575;DHT22;16507;51.046;6.406;2023-05-07T07:25:43;18.00;99.90
29575;DHT22;16507;51.046;6.406;2023-05-07T07:28:09;18.00;99.90
29575;DHT22;16507;51.046;6.406;2023-05-07T07:30:36;18.20;99.90
29575;DHT22;16507;51.046;6.406;2023-05-07T07:33:02;18.50;99.90
29575;DHT22;16507;51.046;6.406;2023-05-07T07:35:37;18.60;99.90
29575;DHT22;16507;51.046;6.406;2023-05-07T07:38:03;18.90;99.90
29575;DHT22;16507;51.046;6.406;2023-05-07T07:40:29;18.70;99.90
29575;DHT22;16507;51.046;6.406;2023-05-07T07:42:54;18.70;99.90
29575;DHT22;16507;51.046;6.406;2023-05-07T07:45:20;19.00;99.90
29575;DHT22;16507;51.046;6.406;2023-05-07T07:47:46;18.80;99.90
29575;DHT22;16507;51.046;6.406;2023-05-07T07:50:12;18.90;99.90
29575;DHT22;16507;51.046;6.406;2023-05-07T07:52:37;19.10;99.90
29575;DHT22;16507;51.046;6.406;2023-05-07T07:55:03;19.20;99.90
29575;DHT22;16507;51.046;6.406;2023-05-07T07:57:30;19.30;99.90
29575;DHT22;16507;51.046;6.406;2023-05-07T07:59:55;19.40;99.90
29575;DHT22;16507;51.046;6.406;2023-05-07T08:02:21;19.20;99.90
29575;DHT22;16507;51.046;6.406;2023-05-07T08:04:47;19.30;99.90
29575;DHT22;16507;51.046;6.406;2023-05-07T08:07:12;19.30;99.90
29575;DHT22;16507;51.046;6.406;2023-05-07T08:09:39;19.20;99.90
29575;DHT22;16507;51.046;6.406;2023-05-07T08:12:07;19.40;99.90
29575;DHT22;16507;51.046;6.406;2023-05-07T08:14:34;19.60;99.90
29575;DHT22;16507;51.046;6.406;2023-05-07T08:16:59;19.80;99.90
29575;DHT22;16507;51.046;6.406;2023-05-07T08:19:25;20.10;99.90
29575;DHT22;16507;51.046;6.406;2023-05-07T08:21:51;20.30;99.90
29575;DHT22;16507;51.046;6.406;2023-05-07T08:24:17;19.90;99.90
29575;DHT22;16507;51.046;6.406;2023-05-07T08:26:44;20.30;99.90
29575;DHT22;16507;51.046;6.406;2023-05-07T08:29:10;20.50;99.90
29575;DHT22;16507;51.046;6.406;2023-05-07T08:31:36;20.60;99.90
29575;DHT22;16507;51.046;6.406;2023-05-07T08:34:02;20.70;99.90
29575;DHT22;16507;51.046;6.406;2023-05-07T08:36:28;20.40;99.90
29575;DHT22;16507;51.046;6.406;2023-05-07T08:38:54;20.30;99.90
29575;DHT22;16507;51.046;6.406;2023-05-07T08:41:20;20.20;99.90
29575;DHT22;16507;51.046;6.406;2023-05-07T08:43:50;20.80;99.90
29575;DHT22;16507;51.046;6.406;2023-05-07T08:46:22;21.30;99.90
29575;DHT22;16507;51.046;6.406;2023-05-07T08:48:51;21.50;99.90
29575;DHT22;16507;51.046;6.406;2023-05-07T08:51:19;21.80;99.90
29575;DHT22;16507;51.046;6.406;2023-05-07T08:53:45;21.60;99.90
29575;DHT22;16507;51.046;6.406;2023-05-07T08:56:12;21.50;99.90
29575;DHT22;16507;51.046;6.406;2023-05-07T08:58:37;21.40;99.90
29575;DHT22;16507;51.046;6.406;2023-05-07T09:01:07;21.50;99.90
29575;DHT22;16507;51.046;6.406;2023-05-07T09:03:33;21.70;99.90
29575;DHT22;16507;51.046;6.406;2023-05-07T09:05:59;21.50;99.90
29575;DHT22;16507;51.046;6.406;2023-05-07T09:08:26;21.80;99.90
29575;DHT22;16507;51.046;6.406;2023-05-07T09:10:52;21.80;99.90
29575;DHT22;16507;51.046;6.406;2023-05-07T09:13:18;21.90;99.90
29575;DHT22;16507;51.046;6.406;2023-05-07T09:15:43;21.60;99.90
29575;DHT22;16507;51.046;6.406;2023-05-07T09:18:09;21.80;99.90
29575;DHT22;16507;51.046;6.406;2023-05-07T09:20:37;22.00;99.90
29575;DHT22;16507;51.046;6.406;2023-05-07T09:23:02;22.40;99.90
29575;DHT22;16507;51.046;6.406;2023-05-07T09:25:29;23.10;86.20
29575;DHT22;16507;51.046;6.406;2023-05-07T09:27:55;23.30;52.40
29575;DHT22;16507;51.046;6.406;2023-05-07T09:30:21;23.10;68.00
29575;DHT22;16507;51.046;6.406;2023-05-07T09:32:46;23.10;58.70
29575;DHT22;16507;51.046;6.406;2023-05-07T09:35:18;23.10;75.70
29575;DHT22;16507;51.046;6.406;2023-05-07T09:37:44;23.00;57.90
29575;DHT22;16507;51.046;6.406;2023-05-07T09:40:31;22.80;83.70
29575;DHT22;16507;51.046;6.406;2023-05-07T09:43:09;22.50;88.40
29575;DHT22;16507;51.046;6.406;2023-05-07T09:45:36;21.80;98.40
29575;DHT22;16507;51.046;6.406;2023-05-07T09:48:05;22.20;99.90
29575;DHT22;16507;51.046;6.406;2023-05-07T09:50:36;22.00;99.90
29575;DHT22;16507;51.046;6.406;2023-05-07T09:53:06;22.30;72.20
29575;DHT22;16507;51.046;6.406;2023-05-07T09:55:35;22.10;99.60
29575;DHT22;16507;51.046;6.406;2023-05-07T09:58:01;22.60;99.90
29575;DHT22;16507;51.046;6.406;2023-05-07T10:00:28;22.80;55.50
29575;DHT22;16507;51.046;6.406;2023-05-07T10:02:56;22.60;92.60
29575;DHT22;16507;51.046;6.406;2023-05-07T10:05:22;22.80;91.80
29575;DHT22;16507;51.046;6.406;2023-05-07T10:07:49;23.10;50.70
29575;DHT22;16507;51.046;6.406;2023-05-07T10:10:16;23.40;66.90
29575;DHT22;16507;51.046;6.406;2023-05-07T10:12:42;23.50;51.20
29575;DHT22;16507;51.046;6.406;2023-05-07T10:15:09;23.50;46.80
29575;DHT22;16507;51.046;6.406;2023-05-07T10:17:37;23.60;43.60
29575;DHT22;16507;51.046;6.406;2023-05-07T10:20:03;23.50;44.70
29575;DHT22;16507;51.046;6.406;2023-05-07T10:22:42;23.30;42.70
29575;DHT22;16507;51.046;6.406;2023-05-07T10:25:16;23.50;32.20
29575;DHT22;16507;51.046;6.406;2023-05-07T10:27:46;23.70;42.30
29575;DHT22;16507;51.046;6.406;2023-05-07T10:33:09;22.80;29.70
29575;DHT22;16507;51.046;6.406;2023-05-07T10:35:40;22.70;38.50
29575;DHT22;16507;51.046;6.406;2023-05-07T10:38:07;22.60;50.90
29575;DHT22;16507;51.046;6.406;2023-05-07T10:40:33;22.30;42.20
29575;DHT22;16507;51.046;6.406;2023-05-07T10:43:00;22.40;41.30
29575;DHT22;16507;51.046;6.406;2023-05-07T10:45:27;22.40;37.80
29575;DHT22;16507;51.046;6.406;2023-05-07T10:50:34;22.50;36.00
29575;DHT22;16507;51.046;6.406;2023-05-07T10:55:48;22.60;42.20
29575;DHT22;16507;51.046;6.406;2023-05-07T10:58:27;22.60;40.50
29575;DHT22;16507;51.046;6.406;2023-05-07T11:00:58;22.70;39.00
29575;DHT22;16507;51.046;6.406;2023-05-07T11:03:27;23.00;37.90
29575;DHT22;16507;51.046;6.406;2023-05-07T11:06:14;22.90;38.00
29575;DHT22;16507;51.046;6.406;2023-05-07T11:11:17;22.50;40.10
29575;DHT22;16507;51.046;6.406;2023-05-07T11:13:45;22.90;51.40
29575;DHT22;16507;51.046;6.406;2023-05-07T11:16:18;23.20;31.70
29575;DHT22;16507;51.046;6.406;2023-05-07T11:18:52;23.30;30.10
29575;DHT22;16507;51.046;6.406;2023-05-07T11:21:36;22.90;32.50
29575;DHT22;16507;51.046;6.406;2023-05-07T11:24:03;23.20;32.80
29575;DHT22;16507;51.046;6.406;2023-05-07T11:26:31;23.50;37.70
29575;DHT22;16507;51.046;6.406;2023-05-07T11:28:57;23.40;33.20
29575;DHT22;16507;51.046;6.406;2023-05-07T11:31:26;23.20;37.50
29575;DHT22;16507;51.046;6.406;2023-05-07T11:33:56;22.30;42.10
29575;DHT22;16507;51.046;6.406;2023-05-07T11:36:23;22.00;39.60
29575;DHT22;16507;51.046;6.406;2023-05-07T11:38:49;22.20;36.30
29575;DHT22;16507;51.046;6.406;2023-05-07T11:41:16;22.40;35.00
29575;DHT22;16507;51.046;6.406;2023-05-07T11:43:56;22.60;40.10
29575;DHT22;16507;51.046;6.406;2023-05-07T11:46:22;22.70;30.30
29575;DHT22;16507;51.046;6.406;2023-05-07T11:48:48;22.60;36.00
29575;DHT22;16507;51.046;6.406;2023-05-07T11:51:19;22.60;38.30
29575;DHT22;16507;51.046;6.406;2023-05-07T11:53:45;22.10;38.90
29575;DHT22;16507;51.046;6.406;2023-05-07T11:56:12;21.80;51.20
29575;DHT22;16507;51.046;6.406;2023-05-07T11:58:39;21.90;43.20
29575;DHT22;16507;51.046;6.406;2023-05-07T12:01:08;22.10;58.90
29575;DHT22;16507;51.046;6.406;2023-05-07T12:03:35;22.40;51.10
29575;DHT22;16507;51.046;6.406;2023-05-07T12:06:01;22.10;38.10
29575;DHT22;16507;51.046;6.406;2023-05-07T12:08:27;22.40;40.60
29575;DHT22;16507;51.046;6.406;2023-05-07T12:10:54;22.70;45.30
29575;DHT22;16507;51.046;6.406;2023-05-07T12:13:21;23.00;38.70
29575;DHT22;16507;51.046;6.406;2023-05-07T12:15:50;23.10;35.10
29575;DHT22;16507;51.046;6.406;2023-05-07T12:18:16;23.10;36.40
29575;DHT22;16507;51.046;6.406;2023-05-07T12:20:42;23.00;35.10
29575;DHT22;16507;51.046;6.406;2023-05-07T12:23:08;23.10;38.80
29575;DHT22;16507;51.046;6.406;2023-05-07T12:25:35;23.00;38.10
29575;DHT22;16507;51.046;6.406;2023-05-07T12:28:05;23.10;32.70
29575;DHT22;16507;51.046;6.406;2023-05-07T12:30:38;22.90;29.20
29575;DHT22;16507;51.046;6.406;2023-05-07T12:33:04;22.50;33.90
29575;DHT22;16507;51.046;6.406;2023-05-07T12:35:30;22.30;38.50
29575;DHT22;16507;51.046;6.406;2023-05-07T12:37:57;21.90;40.90
29575;DHT22;16507;51.046;6.406;2023-05-07T12:43:36;22.40;42.90
29575;DHT22;16507;51.046;6.406;2023-05-07T12:46:04;22.60;57.80
29575;DHT22;16507;51.046;6.406;2023-05-07T12:48:31;22.60;48.80
29575;DHT22;16507;51.046;6.406;2023-05-07T12:50:58;22.30;44.10
29575;DHT22;16507;51.046;6.406;2023-05-07T12:53:25;21.90;49.10
29575;DHT22;16507;51.046;6.406;2023-05-07T12:55:56;22.20;46.60
29575;DHT22;16507;51.046;6.406;2023-05-07T12:58:30;22.40;41.60
29575;DHT22;16507;51.046;6.406;2023-05-07T13:01:00;22.30;32.00
29575;DHT22;16507;51.046;6.406;2023-05-07T13:03:31;22.40;45.50
29575;DHT22;16507;51.046;6.406;2023-05-07T13:06:09;22.10;30.00
29575;DHT22;16507;51.046;6.406;2023-05-07T13:08:40;22.00;39.00
29575;DHT22;16507;51.046;6.406;2023-05-07T13:11:12;21.90;38.70
29575;DHT22;16507;51.046;6.406;2023-05-07T13:13:38;21.70;48.80
29575;DHT22;16507;51.046;6.406;2023-05-07T13:16:06;21.40;63.00
29575;DHT22;16507;51.046;6.406;2023-05-07T13:18:33;21.30;51.10
29575;DHT22;16507;51.046;6.406;2023-05-07T13:21:00;21.20;73.30
29575;DHT22;16507;51.046;6.406;2023-05-07T13:23:26;20.90;99.90
29575;DHT22;16507;51.046;6.406;2023-05-07T13:25:52;20.20;99.90
29575;DHT22;16507;51.046;6.406;2023-05-07T13:28:19;19.40;99.90
29575;DHT22;16507;51.046;6.406;2023-05-07T13:30:46;19.00;99.90
29575;DHT22;16507;51.046;6.406;2023-05-07T13:33:12;18.80;99.90
29575;DHT22;16507;51.046;6.406;2023-05-07T13:35:37;18.70;99.90
29575;DHT22;16507;51.046;6.406;2023-05-07T13:38:03;18.50;99.90
29575;DHT22;16507;51.046;6.406;2023-05-07T13:40:29;18.50;99.90
29575;DHT22;16507;51.046;6.406;2023-05-07T13:42:57;18.50;99.90
29575;DHT22;16507;51.046;6.406;2023-05-07T13:45:24;18.40;99.90
29575;DHT22;16507;51.046;6.406;2023-05-07T13:47:51;18.40;99.90
29575;DHT22;16507;51.046;6.406;2023-05-07T13:50:17;18.20;99.90
29575;DHT22;16507;51.046;6.406;2023-05-07T13:52:44;18.00;99.90
29575;DHT22;16507;51.046;6.406;2023-05-07T13:55:19;17.90;99.90
29575;DHT22;16507;51.046;6.406;2023-05-07T13:57:45;17.80;99.90
29575;DHT22;16507;51.046;6.406;2023-05-07T14:00:11;17.70;99.90
29575;DHT22;16507;51.046;6.406;2023-05-07T14:02:37;17.60;99.90
29575;DHT22;16507;51.046;6.406;2023-05-07T14:05:04;17.60;99.90
29575;DHT22;16507;51.046;6.406;2023-05-07T14:07:30;17.60;99.90
29575;DHT22;16507;51.046;6.406;2023-05-07T14:09:56;17.60;99.90
29575;DHT22;16507;51.046;6.406;2023-05-07T14:12:22;17.60;99.90
29575;DHT22;16507;51.046;6.406;2023-05-07T14:14:48;17.60;99.90
29575;DHT22;16507;51.046;6.406;2023-05-07T14:17:18;17.60;99.90
29575;DHT22;16507;51.046;6.406;2023-05-07T14:19:45;17.80;99.90
29575;DHT22;16507;51.046;6.406;2023-05-07T14:22:13;17.80;99.90
29575;DHT22;16507;51.046;6.406;2023-05-07T14:24:39;17.80;99.90
29575;DHT22;16507;51.046;6.406;2023-05-07T14:27:05;17.80;99.90
29575;DHT22;16507;51.046;6.406;2023-05-07T14:29:31;17.80;99.90
29575;DHT22;16507;51.046;6.406;2023-05-07T14:31:56;17.80;99.90
29575;DHT22;16507;51.046;6.406;2023-05-07T14:34:22;17.80;99.90
29575;DHT22;16507;51.046;6.406;2023-05-07T14:36:47;17.80;99.90
29575;DHT22;16507;51.046;6.406;2023-05-07T14:39:13;17.70;99.90
29575;DHT22;16507;51.046;6.406;2023-05-07T14:41:39;17.60;99.90
29575;DHT22;16507;51.046;6.406;2023-05-07T14:44:04;17.60;99.90
29575;DHT22;16507;51.046;6.406;2023-05-07T14:46:30;17.80;99.90
29575;DHT22;16507;51.046;6.406;2023-05-07T14:48:57;17.90;99.90
29575;DHT22;16507;51.046;6.406;2023-05-07T14:51:23;18.00;99.90
29575;DHT22;16507;51.046;6.406;2023-05-07T14:53:50;18.00;99.90
29575;DHT22;16507;51.046;6.406;2023-05-07T14:56:16;18.00;99.90
29575;DHT22;16507;51.046;6.406;2023-05-07T14:58:42;17.90;99.90
29575;DHT22;16507;51.046;6.406;2023-05-07T15:01:08;18.00;99.90
29575;DHT22;16507;51.046;6.406;2023-05-07T15:03:34;18.20;99.90
29575;DHT22;16507;51.046;6.406;2023-05-07T15:06:00;18.30;99.90
29575;DHT22;16507;51.046;6.406;2023-05-07T15:08:25;18.40;99.90
29575;DHT22;16507;51.046;6.406;2023-05-07T15:10:51;18.40;99.90
29575;DHT22;16507;51.046;6.406;2023-05-07T15:13:17;18.40;99.90
29575;DHT22;16507;51.046;6.406;2023-05-07T15:15:44;18.40;99.90
29575;DHT22;16507;51.046;6.406;2023-05-07T15:18:09;18.40;99.90
29575;DHT22;16507;51.046;6.406;2023-05-07T15:20:36;18.50;99.90
29575;DHT22;16507;51.046;6.406;2023-05-07T15:23:01;18.60;99.90
29575;DHT22;16507;51.046;6.406;2023-05-07T15:25:28;18.70;99.90
29575;DHT22;16507;51.046;6.406;2023-05-07T15:27:53;18.60;99.90
29575;DHT22;16507;51.046;6.406;2023-05-07T15:30:19;18.60;99.90
29575;DHT22;16507;51.046;6.406;2023-05-07T15:32:45;18.60;99.90
29575;DHT22;16507;51.046;6.406;2023-05-07T15:35:11;18.50;99.90
29575;DHT22;16507;51.046;6.406;2023-05-07T15:37:36;18.50;99.90
29575;DHT22;16507;51.046;6.406;2023-05-07T15:40:02;18.40;99.90
29575;DHT22;16507;51.046;6.406;2023-05-07T15:42:30;18.50;99.90
29575;DHT22;16507;51.046;6.406;2023-05-07T15:44:56;18.60;99.90